sensor_id;sensor_type;location;lat;lon;timestamp;P1;durP1;ratioP1;P2;durP2;ratioP2
12852;SDS011;6495;51.808;7.478;2022-11-15T00:00:11;8.47;;;5.83;;
12852;SDS011;6495;51.808;7.478;2022-11-15T00:02:58;8.63;;;5.80;;
12852;SDS011;6495;51.808;7.478;2022-11-15T00:05:44;11.03;;;5.90;;
12852;SDS011;6495;51.808;7.478;2022-11-15T00:08:32;10.00;;;6.17;;
12852;SDS011;6495;51.808;7.478;2022-11-15T00:11:19;11.83;;;6.30;;
12852;SDS011;6495;51.808;7.478;2022-11-15T00:14:08;9.15;;;5.45;;
12852;SDS011;6495;51.808;7.478;2022-11-15T00:16:54;6.87;;;5.00;;
12852;SDS011;6495;51.808;7.478;2022-11-15T00:19:41;8.20;;;4.63;;
12852;SDS011;6495;51.808;7.478;2022-11-15T00:22:30;9.27;;;5.33;;
12852;SDS011;6495;51.808;7.478;2022-11-15T00:25:18;8.33;;;4.67;;
12852;SDS011;6495;51.808;7.478;2022-11-15T00:28:06;9.33;;;5.40;;
12852;SDS011;6495;51.808;7.478;2022-11-15T00:30:59;8.17;;;5.20;;
12852;SDS011;6495;51.808;7.478;2022-11-15T00:33:47;9.27;;;5.20;;
12852;SDS011;6495;51.808;7.478;2022-11-15T00:36:33;9.47;;;4.87;;
12852;SDS011;6495;51.808;7.478;2022-11-15T00:39:20;10.87;;;5.30;;
12852;SDS011;6495;51.808;7.478;2022-11-15T00:42:07;6.93;;;4.70;;
12852;SDS011;6495;51.808;7.478;2022-11-15T00:44:54;7.43;;;4.67;;
12852;SDS011;6495;51.808;7.478;2022-11-15T00:47:44;8.70;;;5.20;;
12852;SDS011;6495;51.808;7.478;2022-11-15T00:50:31;11.27;;;5.27;;
12852;SDS011;6495;51.808;7.478;2022-11-15T00:53:18;8.13;;;4.90;;
12852;SDS011;6495;51.808;7.478;2022-11-15T00:56:05;8.73;;;5.37;;
12852;SDS011;6495;51.808;7.478;2022-11-15T00:58:52;7.47;;;4.97;;
12852;SDS011;6495;51.808;7.478;2022-11-15T01:01:40;8.50;;;5.20;;
12852;SDS011;6495;51.808;7.478;2022-11-15T01:04:28;7.67;;;5.00;;
12852;SDS011;6495;51.808;7.478;2022-11-15T01:07:15;9.20;;;5.23;;
12852;SDS011;6495;51.808;7.478;2022-11-15T01:10:01;7.93;;;5.60;;
12852;SDS011;6495;51.808;7.478;2022-11-15T01:12:50;8.80;;;5.43;;
12852;SDS011;6495;51.808;7.478;2022-11-15T01:15:38;8.13;;;5.03;;
12852;SDS011;6495;51.808;7.478;2022-11-15T01:18:26;8.47;;;5.53;;
12852;SDS011;6495;51.808;7.478;2022-11-15T01:21:15;8.17;;;5.20;;
12852;SDS011;6495;51.808;7.478;2022-11-15T01:24:04;6.70;;;4.73;;
12852;SDS011;6495;51.808;7.478;2022-11-15T01:26:52;8.50;;;5.20;;
12852;SDS011;6495;51.808;7.478;2022-11-15T01:29:39;9.20;;;5.33;;
12852;SDS011;6495;51.808;7.478;2022-11-15T01:32:25;8.87;;;5.07;;
12852;SDS011;6495;51.808;7.478;2022-11-15T01:35:12;7.17;;;4.67;;
12852;SDS011;6495;51.808;7.478;2022-11-15T01:38:01;7.80;;;4.87;;
12852;SDS011;6495;51.808;7.478;2022-11-15T01:40:48;7.17;;;4.37;;
12852;SDS011;6495;51.808;7.478;2022-11-15T01:43:35;7.40;;;4.90;;
12852;SDS011;6495;51.808;7.478;2022-11-15T01:46:24;7.35;;;5.05;;
12852;SDS011;6495;51.808;7.478;2022-11-15T01:49:16;7.43;;;4.77;;
12852;SDS011;6495;51.808;7.478;2022-11-15T01:52:07;8.07;;;4.90;;
12852;SDS011;6495;51.808;7.478;2022-11-15T01:55:02;8.13;;;5.23;;
12852;SDS011;6495;51.808;7.478;2022-11-15T01:57:55;7.30;;;4.40;;
12852;SDS011;6495;51.808;7.478;2022-11-15T02:00:47;6.40;;;4.23;;
12852;SDS011;6495;51.808;7.478;2022-11-15T02:03:36;5.73;;;4.37;;
12852;SDS011;6495;51.808;7.478;2022-11-15T02:06:31;6.70;;;4.77;;
12852;SDS011;6495;51.808;7.478;2022-11-15T02:09:19;8.53;;;4.33;;
12852;SDS011;6495;51.808;7.478;2022-11-15T02:12:07;6.80;;;4.47;;
12852;SDS011;6495;51.808;7.478;2022-11-15T02:14:57;6.60;;;4.20;;
12852;SDS011;6495;51.808;7.478;2022-11-15T02:17:51;8.50;;;3.97;;
12852;SDS011;6495;51.808;7.478;2022-11-15T02:20:58;8.30;;;4.47;;
12852;SDS011;6495;51.808;7.478;2022-11-15T02:27:58;6.97;;;4.15;;
12852;SDS011;6495;51.808;7.478;2022-11-15T02:31:25;6.30;;;4.55;;
12852;SDS011;6495;51.808;7.478;2022-11-15T02:34:22;8.40;;;4.13;;
12852;SDS011;6495;51.808;7.478;2022-11-15T02:37:21;7.75;;;4.18;;
12852;SDS011;6495;51.808;7.478;2022-11-15T02:40:27;5.93;;;4.10;;
12852;SDS011;6495;51.808;7.478;2022-11-15T02:43:28;6.78;;;4.13;;
12852;SDS011;6495;51.808;7.478;2022-11-15T02:46:41;7.70;;;3.97;;
12852;SDS011;6495;51.808;7.478;2022-11-15T02:49:50;6.73;;;4.27;;
12852;SDS011;6495;51.808;7.478;2022-11-15T02:52:40;5.40;;;4.03;;
12852;SDS011;6495;51.808;7.478;2022-11-15T02:55:31;6.95;;;4.63;;
12852;SDS011;6495;51.808;7.478;2022-11-15T02:58:32;6.57;;;3.70;;
12852;SDS011;6495;51.808;7.478;2022-11-15T03:01:44;6.95;;;4.25;;
12852;SDS011;6495;51.808;7.478;2022-11-15T03:04:52;5.88;;;3.55;;
12852;SDS011;6495;51.808;7.478;2022-11-15T03:07:43;6.50;;;4.20;;
12852;SDS011;6495;51.808;7.478;2022-11-15T03:10:47;4.88;;;3.72;;
12852;SDS011;6495;51.808;7.478;2022-11-15T03:13:49;5.60;;;4.00;;
12852;SDS011;6495;51.808;7.478;2022-11-15T03:16:46;5.50;;;3.90;;
12852;SDS011;6495;51.808;7.478;2022-11-15T03:19:39;6.32;;;4.00;;
12852;SDS011;6495;51.808;7.478;2022-11-15T03:22:33;8.38;;;4.10;;
12852;SDS011;6495;51.808;7.478;2022-11-15T03:25:25;5.20;;;4.03;;
12852;SDS011;6495;51.808;7.478;2022-11-15T03:28:16;5.60;;;4.03;;
12852;SDS011;6495;51.808;7.478;2022-11-15T03:31:08;8.15;;;4.28;;
12852;SDS011;6495;51.808;7.478;2022-11-15T03:34:28;7.15;;;4.10;;
12852;SDS011;6495;51.808;7.478;2022-11-15T03:37:24;9.95;;;4.22;;
12852;SDS011;6495;51.808;7.478;2022-11-15T03:40:19;6.30;;;4.22;;
12852;SDS011;6495;51.808;7.478;2022-11-15T03:43:16;6.78;;;4.15;;
12852;SDS011;6495;51.808;7.478;2022-11-15T03:46:16;5.65;;;3.80;;
12852;SDS011;6495;51.808;7.478;2022-11-15T03:49:13;5.30;;;3.75;;
12852;SDS011;6495;51.808;7.478;2022-11-15T03:52:09;4.38;;;3.47;;
12852;SDS011;6495;51.808;7.478;2022-11-15T03:54:57;8.35;;;4.10;;
12852;SDS011;6495;51.808;7.478;2022-11-15T03:57:51;6.32;;;4.03;;
12852;SDS011;6495;51.808;7.478;2022-11-15T04:00:43;9.02;;;4.18;;
12852;SDS011;6495;51.808;7.478;2022-11-15T04:03:30;6.10;;;3.92;;
12852;SDS011;6495;51.808;7.478;2022-11-15T04:06:17;7.90;;;3.83;;
12852;SDS011;6495;51.808;7.478;2022-11-15T04:09:05;5.82;;;4.55;;
12852;SDS011;6495;51.808;7.478;2022-11-15T04:11:52;5.30;;;3.80;;
12852;SDS011;6495;51.808;7.478;2022-11-15T04:14:39;9.35;;;4.40;;
12852;SDS011;6495;51.808;7.478;2022-11-15T04:17:47;7.60;;;4.18;;
12852;SDS011;6495;51.808;7.478;2022-11-15T04:20:35;7.68;;;3.97;;
12852;SDS011;6495;51.808;7.478;2022-11-15T04:23:40;5.15;;;3.90;;
12852;SDS011;6495;51.808;7.478;2022-11-15T04:26:46;9.10;;;4.25;;
12852;SDS011;6495;51.808;7.478;2022-11-15T04:29:33;8.40;;;3.80;;
12852;SDS011;6495;51.808;7.478;2022-11-15T04:32:20;6.70;;;4.50;;
12852;SDS011;6495;51.808;7.478;2022-11-15T04:35:07;6.20;;;4.30;;
12852;SDS011;6495;51.808;7.478;2022-11-15T04:37:54;8.65;;;4.68;;
12852;SDS011;6495;51.808;7.478;2022-11-15T04:40:42;6.63;;;4.75;;
12852;SDS011;6495;51.808;7.478;2022-11-15T04:43:30;7.88;;;5.03;;
12852;SDS011;6495;51.808;7.478;2022-11-15T04:46:17;5.75;;;4.10;;
12852;SDS011;6495;51.808;7.478;2022-11-15T04:49:04;8.07;;;4.50;;
12852;SDS011;6495;51.808;7.478;2022-11-15T04:51:51;6.68;;;4.60;;
12852;SDS011;6495;51.808;7.478;2022-11-15T04:54:38;5.20;;;4.07;;
12852;SDS011;6495;51.808;7.478;2022-11-15T04:57:27;6.95;;;4.10;;
12852;SDS011;6495;51.808;7.478;2022-11-15T05:00:16;6.05;;;3.75;;
12852;SDS011;6495;51.808;7.478;2022-11-15T05:03:03;6.88;;;4.00;;
12852;SDS011;6495;51.808;7.478;2022-11-15T05:06:08;5.55;;;4.57;;
12852;SDS011;6495;51.808;7.478;2022-11-15T05:08:55;8.02;;;4.28;;
12852;SDS011;6495;51.808;7.478;2022-11-15T05:11:42;6.00;;;4.40;;
12852;SDS011;6495;51.808;7.478;2022-11-15T05:14:30;6.95;;;3.95;;
12852;SDS011;6495;51.808;7.478;2022-11-15T05:17:18;5.53;;;4.25;;
12852;SDS011;6495;51.808;7.478;2022-11-15T05:20:05;6.28;;;4.35;;
12852;SDS011;6495;51.808;7.478;2022-11-15T05:22:53;6.22;;;4.28;;
12852;SDS011;6495;51.808;7.478;2022-11-15T05:25:41;5.22;;;3.47;;
12852;SDS011;6495;51.808;7.478;2022-11-15T05:28:27;5.47;;;4.00;;
12852;SDS011;6495;51.808;7.478;2022-11-15T05:31:14;7.82;;;4.22;;
12852;SDS011;6495;51.808;7.478;2022-11-15T05:34:03;5.97;;;4.03;;
12852;SDS011;6495;51.808;7.478;2022-11-15T05:36:51;7.28;;;4.03;;
12852;SDS011;6495;51.808;7.478;2022-11-15T05:39:38;9.10;;;4.18;;
12852;SDS011;6495;51.808;7.478;2022-11-15T05:42:25;6.20;;;4.00;;
12852;SDS011;6495;51.808;7.478;2022-11-15T05:45:13;6.45;;;4.10;;
12852;SDS011;6495;51.808;7.478;2022-11-15T05:48:06;6.45;;;4.10;;
12852;SDS011;6495;51.808;7.478;2022-11-15T05:50:56;5.35;;;3.60;;
12852;SDS011;6495;51.808;7.478;2022-11-15T05:53:44;6.28;;;4.32;;
12852;SDS011;6495;51.808;7.478;2022-11-15T05:56:31;7.60;;;4.15;;
12852;SDS011;6495;51.808;7.478;2022-11-15T05:59:18;5.15;;;3.70;;
12852;SDS011;6495;51.808;7.478;2022-11-15T06:02:06;6.07;;;3.92;;
12852;SDS011;6495;51.808;7.478;2022-11-15T06:04:52;6.78;;;4.20;;
12852;SDS011;6495;51.808;7.478;2022-11-15T06:07:41;6.68;;;4.07;;
12852;SDS011;6495;51.808;7.478;2022-11-15T06:10:29;6.53;;;3.75;;
12852;SDS011;6495;51.808;7.478;2022-11-15T06:13:16;4.93;;;3.75;;
12852;SDS011;6495;51.808;7.478;2022-11-15T06:16:03;8.20;;;4.03;;
12852;SDS011;6495;51.808;7.478;2022-11-15T06:18:51;9.10;;;4.15;;
12852;SDS011;6495;51.808;7.478;2022-11-15T06:21:38;6.68;;;3.85;;
12852;SDS011;6495;51.808;7.478;2022-11-15T06:24:26;6.97;;;4.10;;
12852;SDS011;6495;51.808;7.478;2022-11-15T06:27:13;7.15;;;4.30;;
12852;SDS011;6495;51.808;7.478;2022-11-15T06:30:00;6.22;;;4.05;;
12852;SDS011;6495;51.808;7.478;2022-11-15T06:32:46;5.80;;;3.80;;
12852;SDS011;6495;51.808;7.478;2022-11-15T06:35:33;5.57;;;3.60;;
12852;SDS011;6495;51.808;7.478;2022-11-15T06:38:22;5.65;;;3.70;;
12852;SDS011;6495;51.808;7.478;2022-11-15T06:41:10;5.70;;;4.07;;
12852;SDS011;6495;51.808;7.478;2022-11-15T06:43:59;5.13;;;3.67;;
12852;SDS011;6495;51.808;7.478;2022-11-15T06:46:46;6.88;;;3.92;;
12852;SDS011;6495;51.808;7.478;2022-11-15T06:49:33;4.63;;;3.90;;
12852;SDS011;6495;51.808;7.478;2022-11-15T06:52:20;4.28;;;3.40;;
12852;SDS011;6495;51.808;7.478;2022-11-15T06:55:07;4.35;;;3.70;;
12852;SDS011;6495;51.808;7.478;2022-11-15T06:57:56;5.32;;;3.83;;
12852;SDS011;6495;51.808;7.478;2022-11-15T07:00:43;6.10;;;3.92;;
12852;SDS011;6495;51.808;7.478;2022-11-15T07:03:30;4.78;;;3.78;;
12852;SDS011;6495;51.808;7.478;2022-11-15T07:06:18;5.68;;;3.95;;
12852;SDS011;6495;51.808;7.478;2022-11-15T07:09:05;4.32;;;3.65;;
12852;SDS011;6495;51.808;7.478;2022-11-15T07:11:52;4.40;;;3.75;;
12852;SDS011;6495;51.808;7.478;2022-11-15T07:14:40;8.32;;;4.18;;
12852;SDS011;6495;51.808;7.478;2022-11-15T07:17:27;6.53;;;3.60;;
12852;SDS011;6495;51.808;7.478;2022-11-15T07:20:14;5.25;;;3.83;;
12852;SDS011;6495;51.808;7.478;2022-11-15T07:23:02;4.82;;;3.67;;
12852;SDS011;6495;51.808;7.478;2022-11-15T07:25:50;7.03;;;4.00;;
12852;SDS011;6495;51.808;7.478;2022-11-15T07:28:37;4.85;;;3.60;;
12852;SDS011;6495;51.808;7.478;2022-11-15T07:31:25;4.30;;;3.55;;
12852;SDS011;6495;51.808;7.478;2022-11-15T07:34:12;5.43;;;3.70;;
12852;SDS011;6495;51.808;7.478;2022-11-15T07:36:58;6.60;;;3.30;;
12852;SDS011;6495;51.808;7.478;2022-11-15T07:39:45;5.13;;;3.45;;
12852;SDS011;6495;51.808;7.478;2022-11-15T07:42:32;3.30;;;2.97;;
12852;SDS011;6495;51.808;7.478;2022-11-15T07:45:39;5.18;;;3.75;;
12852;SDS011;6495;51.808;7.478;2022-11-15T07:48:29;3.67;;;3.08;;
12852;SDS011;6495;51.808;7.478;2022-11-15T07:51:28;5.60;;;3.30;;
12852;SDS011;6495;51.808;7.478;2022-11-15T07:54:15;5.13;;;3.42;;
12852;SDS011;6495;51.808;7.478;2022-11-15T07:57:02;4.47;;;3.58;;
12852;SDS011;6495;51.808;7.478;2022-11-15T07:59:52;5.25;;;3.60;;
12852;SDS011;6495;51.808;7.478;2022-11-15T08:02:38;5.30;;;3.50;;
12852;SDS011;6495;51.808;7.478;2022-11-15T08:05:27;4.97;;;3.40;;
12852;SDS011;6495;51.808;7.478;2022-11-15T08:08:13;4.90;;;3.33;;
12852;SDS011;6495;51.808;7.478;2022-11-15T08:11:00;5.65;;;3.45;;
12852;SDS011;6495;51.808;7.478;2022-11-15T08:13:47;4.78;;;2.60;;
12852;SDS011;6495;51.808;7.478;2022-11-15T08:16:33;2.63;;;2.28;;
12852;SDS011;6495;51.808;7.478;2022-11-15T08:19:20;2.63;;;2.22;;
12852;SDS011;6495;51.808;7.478;2022-11-15T08:22:09;3.50;;;2.33;;
12852;SDS011;6495;51.808;7.478;2022-11-15T08:24:55;4.03;;;1.83;;
12852;SDS011;6495;51.808;7.478;2022-11-15T08:27:42;1.98;;;1.40;;
12852;SDS011;6495;51.808;7.478;2022-11-15T08:30:29;2.35;;;1.60;;
12852;SDS011;6495;51.808;7.478;2022-11-15T08:33:21;2.55;;;1.80;;
12852;SDS011;6495;51.808;7.478;2022-11-15T08:36:10;2.20;;;1.58;;
12852;SDS011;6495;51.808;7.478;2022-11-15T08:39:01;2.53;;;1.58;;
12852;SDS011;6495;51.808;7.478;2022-11-15T08:41:49;2.45;;;1.38;;
12852;SDS011;6495;51.808;7.478;2022-11-15T08:44:36;3.03;;;1.05;;
12852;SDS011;6495;51.808;7.478;2022-11-15T08:47:23;1.30;;;1.05;;
12852;SDS011;6495;51.808;7.478;2022-11-15T08:50:11;1.33;;;1.13;;
12852;SDS011;6495;51.808;7.478;2022-11-15T08:52:57;1.35;;;1.25;;
12852;SDS011;6495;51.808;7.478;2022-11-15T08:55:51;2.28;;;1.10;;
12852;SDS011;6495;51.808;7.478;2022-11-15T08:58:39;1.42;;;1.20;;
12852;SDS011;6495;51.808;7.478;2022-11-15T09:01:27;1.92;;;1.40;;
12852;SDS011;6495;51.808;7.478;2022-11-15T09:04:14;1.48;;;1.33;;
12852;SDS011;6495;51.808;7.478;2022-11-15T09:07:01;3.47;;;1.45;;
12852;SDS011;6495;51.808;7.478;2022-11-15T09:09:47;1.10;;;1.00;;
12852;SDS011;6495;51.808;7.478;2022-11-15T09:12:35;2.00;;;1.30;;
12852;SDS011;6495;51.808;7.478;2022-11-15T09:15:23;1.40;;;1.27;;
12852;SDS011;6495;51.808;7.478;2022-11-15T09:18:09;1.52;;;1.20;;
12852;SDS011;6495;51.808;7.478;2022-11-15T09:20:56;1.33;;;1.20;;
12852;SDS011;6495;51.808;7.478;2022-11-15T09:23:43;3.40;;;1.20;;
12852;SDS011;6495;51.808;7.478;2022-11-15T09:26:30;1.33;;;1.15;;
12852;SDS011;6495;51.808;7.478;2022-11-15T09:29:18;2.33;;;1.30;;
12852;SDS011;6495;51.808;7.478;2022-11-15T09:32:05;1.50;;;1.30;;
12852;SDS011;6495;51.808;7.478;2022-11-15T09:34:52;2.15;;;1.60;;
12852;SDS011;6495;51.808;7.478;2022-11-15T09:37:38;1.25;;;1.15;;
12852;SDS011;6495;51.808;7.478;2022-11-15T09:40:25;2.35;;;1.45;;
12852;SDS011;6495;51.808;7.478;2022-11-15T09:43:24;1.90;;;1.35;;
12852;SDS011;6495;51.808;7.478;2022-11-15T09:46:20;1.60;;;1.15;;
12852;SDS011;6495;51.808;7.478;2022-11-15T09:49:22;1.83;;;1.30;;
12852;SDS011;6495;51.808;7.478;2022-11-15T09:52:10;2.13;;;1.17;;
12852;SDS011;6495;51.808;7.478;2022-11-15T09:54:57;1.45;;;1.20;;
12852;SDS011;6495;51.808;7.478;2022-11-15T09:57:44;1.58;;;1.15;;
12852;SDS011;6495;51.808;7.478;2022-11-15T10:00:40;1.50;;;1.20;;
12852;SDS011;6495;51.808;7.478;2022-11-15T10:03:35;1.52;;;1.17;;
12852;SDS011;6495;51.808;7.478;2022-11-15T10:06:26;1.98;;;1.15;;
12852;SDS011;6495;51.808;7.478;2022-11-15T10:09:15;0.85;;;0.85;;
12852;SDS011;6495;51.808;7.478;2022-11-15T10:12:08;1.20;;;1.10;;
12852;SDS011;6495;51.808;7.478;2022-11-15T10:15:00;1.27;;;1.10;;
12852;SDS011;6495;51.808;7.478;2022-11-15T10:21:08;1.08;;;1.00;;
12852;SDS011;6495;51.808;7.478;2022-11-15T10:24:06;1.30;;;1.10;;
12852;SDS011;6495;51.808;7.478;2022-11-15T10:26:57;1.75;;;1.02;;
12852;SDS011;6495;51.808;7.478;2022-11-15T10:29:44;2.60;;;1.40;;
12852;SDS011;6495;51.808;7.478;2022-11-15T10:32:32;1.23;;;1.13;;
12852;SDS011;6495;51.808;7.478;2022-11-15T10:35:24;1.75;;;0.85;;
12852;SDS011;6495;51.808;7.478;2022-11-15T10:38:15;1.25;;;1.05;;
12852;SDS011;6495;51.808;7.478;2022-11-15T10:41:06;1.40;;;1.00;;
12852;SDS011;6495;51.808;7.478;2022-11-15T10:44:01;1.13;;;0.90;;
12852;SDS011;6495;51.808;7.478;2022-11-15T10:47:04;1.65;;;1.13;;
12852;SDS011;6495;51.808;7.478;2022-11-15T10:50:27;2.53;;;1.10;;
12852;SDS011;6495;51.808;7.478;2022-11-15T10:53:19;2.22;;;1.08;;
12852;SDS011;6495;51.808;7.478;2022-11-15T10:56:15;2.03;;;1.02;;
12852;SDS011;6495;51.808;7.478;2022-11-15T10:59:14;1.10;;;0.98;;
12852;SDS011;6495;51.808;7.478;2022-11-15T11:02:23;0.80;;;0.80;;
12852;SDS011;6495;51.808;7.478;2022-11-15T11:05:26;0.93;;;0.90;;
12852;SDS011;6495;51.808;7.478;2022-11-15T11:08:26;1.73;;;0.93;;
12852;SDS011;6495;51.808;7.478;2022-11-15T11:11:14;1.70;;;1.10;;
12852;SDS011;6495;51.808;7.478;2022-11-15T11:14:05;3.85;;;0.90;;
12852;SDS011;6495;51.808;7.478;2022-11-15T11:17:02;1.00;;;0.82;;
12852;SDS011;6495;51.808;7.478;2022-11-15T11:20:00;1.60;;;1.00;;
12852;SDS011;6495;51.808;7.478;2022-11-15T11:23:03;1.45;;;1.00;;
12852;SDS011;6495;51.808;7.478;2022-11-15T11:26:18;1.45;;;0.90;;
12852;SDS011;6495;51.808;7.478;2022-11-15T11:29:30;1.05;;;0.95;;
12852;SDS011;6495;51.808;7.478;2022-11-15T11:36:05;1.05;;;0.95;;
12852;SDS011;6495;51.808;7.478;2022-11-15T11:39:10;0.95;;;0.80;;
12852;SDS011;6495;51.808;7.478;2022-11-15T11:42:13;1.27;;;1.02;;
12852;SDS011;6495;51.808;7.478;2022-11-15T11:45:24;1.23;;;0.77;;
12852;SDS011;6495;51.808;7.478;2022-11-15T11:48:38;2.03;;;1.13;;
12852;SDS011;6495;51.808;7.478;2022-11-15T11:51:33;1.55;;;1.00;;
12852;SDS011;6495;51.808;7.478;2022-11-15T11:54:29;1.73;;;0.90;;
12852;SDS011;6495;51.808;7.478;2022-11-15T11:57:28;3.75;;;1.00;;
12852;SDS011;6495;51.808;7.478;2022-11-15T12:00:37;0.82;;;0.80;;
12852;SDS011;6495;51.808;7.478;2022-11-15T12:03:30;1.00;;;0.90;;
12852;SDS011;6495;51.808;7.478;2022-11-15T12:06:29;1.38;;;0.90;;
12852;SDS011;6495;51.808;7.478;2022-11-15T12:09:23;0.90;;;0.88;;
12852;SDS011;6495;51.808;7.478;2022-11-15T12:12:18;1.05;;;0.90;;
12852;SDS011;6495;51.808;7.478;2022-11-15T12:15:18;1.85;;;1.00;;
12852;SDS011;6495;51.808;7.478;2022-11-15T12:21:01;2.10;;;1.00;;
12852;SDS011;6495;51.808;7.478;2022-11-15T12:23:55;4.03;;;0.93;;
12852;SDS011;6495;51.808;7.478;2022-11-15T12:26:50;1.30;;;0.98;;
12852;SDS011;6495;51.808;7.478;2022-11-15T12:29:45;1.40;;;0.93;;
12852;SDS011;6495;51.808;7.478;2022-11-15T12:32:37;2.47;;;1.00;;
12852;SDS011;6495;51.808;7.478;2022-11-15T12:35:35;1.08;;;0.90;;
12852;SDS011;6495;51.808;7.478;2022-11-15T12:41:41;1.15;;;0.98;;
12852;SDS011;6495;51.808;7.478;2022-11-15T12:47:46;1.20;;;0.80;;
12852;SDS011;6495;51.808;7.478;2022-11-15T12:53:42;1.27;;;1.08;;
12852;SDS011;6495;51.808;7.478;2022-11-15T12:56:30;1.48;;;1.02;;
12852;SDS011;6495;51.808;7.478;2022-11-15T12:59:39;0.82;;;0.75;;
12852;SDS011;6495;51.808;7.478;2022-11-15T13:02:36;1.30;;;1.00;;
12852;SDS011;6495;51.808;7.478;2022-11-15T13:12:54;1.02;;;0.90;;
12852;SDS011;6495;51.808;7.478;2022-11-15T13:15:53;2.05;;;0.70;;
12852;SDS011;6495;51.808;7.478;2022-11-15T13:18:43;1.10;;;0.77;;
12852;SDS011;6495;51.808;7.478;2022-11-15T13:21:39;0.98;;;0.80;;
12852;SDS011;6495;51.808;7.478;2022-11-15T13:24:49;0.60;;;0.60;;
12852;SDS011;6495;51.808;7.478;2022-11-15T13:27:36;0.50;;;0.35;;
12852;SDS011;6495;51.808;7.478;2022-11-15T13:30:23;0.98;;;0.70;;
12852;SDS011;6495;51.808;7.478;2022-11-15T13:33:14;0.90;;;0.70;;
12852;SDS011;6495;51.808;7.478;2022-11-15T13:36:07;0.60;;;0.60;;
12852;SDS011;6495;51.808;7.478;2022-11-15T13:39:02;1.35;;;0.80;;
12852;SDS011;6495;51.808;7.478;2022-11-15T13:41:51;0.63;;;0.60;;
12852;SDS011;6495;51.808;7.478;2022-11-15T13:44:38;0.77;;;0.70;;
12852;SDS011;6495;51.808;7.478;2022-11-15T13:47:25;2.50;;;0.75;;
12852;SDS011;6495;51.808;7.478;2022-11-15T13:50:14;0.88;;;0.88;;
12852;SDS011;6495;51.808;7.478;2022-11-15T13:53:03;1.58;;;0.57;;
12852;SDS011;6495;51.808;7.478;2022-11-15T13:55:51;1.13;;;0.80;;
12852;SDS011;6495;51.808;7.478;2022-11-15T13:58:40;0.60;;;0.60;;
12852;SDS011;6495;51.808;7.478;2022-11-15T14:01:28;1.02;;;0.63;;
12852;SDS011;6495;51.808;7.478;2022-11-15T14:04:18;1.15;;;0.90;;
12852;SDS011;6495;51.808;7.478;2022-11-15T14:07:14;1.58;;;0.88;;
12852;SDS011;6495;51.808;7.478;2022-11-15T14:13:26;1.80;;;0.60;;
12852;SDS011;6495;51.808;7.478;2022-11-15T14:16:15;0.65;;;0.57;;
12852;SDS011;6495;51.808;7.478;2022-11-15T14:19:06;0.70;;;0.70;;
12852;SDS011;6495;51.808;7.478;2022-11-15T14:22:14;1.00;;;0.73;;
12852;SDS011;6495;51.808;7.478;2022-11-15T14:25:15;0.70;;;0.70;;
12852;SDS011;6495;51.808;7.478;2022-11-15T14:28:10;2.78;;;1.00;;
12852;SDS011;6495;51.808;7.478;2022-11-15T14:31:01;1.95;;;0.82;;
12852;SDS011;6495;51.808;7.478;2022-11-15T14:33:57;1.17;;;0.90;;
12852;SDS011;6495;51.808;7.478;2022-11-15T14:36:43;1.63;;;1.10;;
12852;SDS011;6495;51.808;7.478;2022-11-15T14:39:30;0.80;;;0.80;;
12852;SDS011;6495;51.808;7.478;2022-11-15T14:42:17;1.27;;;0.90;;
12852;SDS011;6495;51.808;7.478;2022-11-15T14:45:09;1.58;;;0.85;;
12852;SDS011;6495;51.808;7.478;2022-11-15T14:48:00;3.08;;;1.00;;
12852;SDS011;6495;51.808;7.478;2022-11-15T14:50:46;0.80;;;0.80;;
12852;SDS011;6495;51.808;7.478;2022-11-15T14:53:34;1.33;;;0.65;;
12852;SDS011;6495;51.808;7.478;2022-11-15T14:56:20;1.35;;;0.88;;
12852;SDS011;6495;51.808;7.478;2022-11-15T14:59:07;1.83;;;0.60;;
12852;SDS011;6495;51.808;7.478;2022-11-15T15:01:55;1.13;;;0.60;;
12852;SDS011;6495;51.808;7.478;2022-11-15T15:04:43;1.35;;;0.75;;
12852;SDS011;6495;51.808;7.478;2022-11-15T15:07:30;1.15;;;0.90;;
12852;SDS011;6495;51.808;7.478;2022-11-15T15:10:17;2.28;;;1.02;;
12852;SDS011;6495;51.808;7.478;2022-11-15T15:13:25;1.20;;;0.68;;
12852;SDS011;6495;51.808;7.478;2022-11-15T15:16:13;1.10;;;0.80;;
12852;SDS011;6495;51.808;7.478;2022-11-15T15:19:02;2.35;;;0.80;;
12852;SDS011;6495;51.808;7.478;2022-11-15T15:21:48;1.02;;;0.90;;
12852;SDS011;6495;51.808;7.478;2022-11-15T15:24:35;1.65;;;1.00;;
12852;SDS011;6495;51.808;7.478;2022-11-15T15:27:22;1.42;;;1.20;;
12852;SDS011;6495;51.808;7.478;2022-11-15T15:30:09;1.08;;;0.77;;
12852;SDS011;6495;51.808;7.478;2022-11-15T15:32:57;1.83;;;0.95;;
12852;SDS011;6495;51.808;7.478;2022-11-15T15:35:54;2.85;;;0.90;;
12852;SDS011;6495;51.808;7.478;2022-11-15T15:38:41;1.23;;;0.90;;
12852;SDS011;6495;51.808;7.478;2022-11-15T15:41:28;2.65;;;1.00;;
12852;SDS011;6495;51.808;7.478;2022-11-15T15:44:14;3.45;;;1.13;;
12852;SDS011;6495;51.808;7.478;2022-11-15T15:47:01;4.03;;;1.17;;
12852;SDS011;6495;51.808;7.478;2022-11-15T15:49:56;1.58;;;1.00;;
12852;SDS011;6495;51.808;7.478;2022-11-15T15:52:43;3.03;;;0.90;;
12852;SDS011;6495;51.808;7.478;2022-11-15T15:55:30;1.17;;;1.02;;
12852;SDS011;6495;51.808;7.478;2022-11-15T15:58:17;3.15;;;1.17;;
12852;SDS011;6495;51.808;7.478;2022-11-15T16:01:04;1.52;;;1.13;;
12852;SDS011;6495;51.808;7.478;2022-11-15T16:03:51;4.05;;;1.33;;
12852;SDS011;6495;51.808;7.478;2022-11-15T16:06:38;2.00;;;1.42;;
12852;SDS011;6495;51.808;7.478;2022-11-15T16:09:30;1.90;;;1.10;;
12852;SDS011;6495;51.808;7.478;2022-11-15T16:12:34;2.63;;;1.10;;
12852;SDS011;6495;51.808;7.478;2022-11-15T16:15:22;3.30;;;1.38;;
12852;SDS011;6495;51.808;7.478;2022-11-15T16:18:16;2.20;;;1.10;;
12852;SDS011;6495;51.808;7.478;2022-11-15T16:21:03;1.17;;;1.08;;
12852;SDS011;6495;51.808;7.478;2022-11-15T16:23:50;3.95;;;1.50;;
12852;SDS011;6495;51.808;7.478;2022-11-15T16:26:39;4.40;;;1.40;;
12852;SDS011;6495;51.808;7.478;2022-11-15T16:29:26;1.67;;;1.23;;
12852;SDS011;6495;51.808;7.478;2022-11-15T16:32:13;2.88;;;1.50;;
12852;SDS011;6495;51.808;7.478;2022-11-15T16:35:00;1.55;;;1.15;;
12852;SDS011;6495;51.808;7.478;2022-11-15T16:37:47;1.88;;;1.15;;
12852;SDS011;6495;51.808;7.478;2022-11-15T16:40:35;1.85;;;1.50;;
12852;SDS011;6495;51.808;7.478;2022-11-15T16:43:23;3.40;;;1.58;;
12852;SDS011;6495;51.808;7.478;2022-11-15T16:46:12;2.47;;;1.58;;
12852;SDS011;6495;51.808;7.478;2022-11-15T16:49:03;5.32;;;1.38;;
12852;SDS011;6495;51.808;7.478;2022-11-15T16:51:50;1.92;;;1.52;;
12852;SDS011;6495;51.808;7.478;2022-11-15T16:54:36;2.53;;;1.52;;
12852;SDS011;6495;51.808;7.478;2022-11-15T16:57:23;2.88;;;1.60;;
12852;SDS011;6495;51.808;7.478;2022-11-15T17:00:12;2.42;;;1.50;;
12852;SDS011;6495;51.808;7.478;2022-11-15T17:03:00;2.85;;;1.50;;
12852;SDS011;6495;51.808;7.478;2022-11-15T17:05:47;2.05;;;1.50;;
12852;SDS011;6495;51.808;7.478;2022-11-15T17:08:34;2.33;;;1.40;;
12852;SDS011;6495;51.808;7.478;2022-11-15T17:11:21;3.72;;;1.85;;
12852;SDS011;6495;51.808;7.478;2022-11-15T17:14:08;2.13;;;1.45;;
12852;SDS011;6495;51.808;7.478;2022-11-15T17:16:58;2.60;;;1.65;;
12852;SDS011;6495;51.808;7.478;2022-11-15T17:19:45;1.73;;;1.48;;
12852;SDS011;6495;51.808;7.478;2022-11-15T17:22:31;1.73;;;1.55;;
12852;SDS011;6495;51.808;7.478;2022-11-15T17:25:18;2.92;;;1.75;;
12852;SDS011;6495;51.808;7.478;2022-11-15T17:28:05;2.33;;;1.80;;
12852;SDS011;6495;51.808;7.478;2022-11-15T17:30:52;2.67;;;1.70;;
12852;SDS011;6495;51.808;7.478;2022-11-15T17:33:40;2.97;;;1.83;;
12852;SDS011;6495;51.808;7.478;2022-11-15T17:36:27;2.08;;;1.75;;
12852;SDS011;6495;51.808;7.478;2022-11-15T17:39:14;2.58;;;1.63;;
12852;SDS011;6495;51.808;7.478;2022-11-15T17:42:02;2.40;;;1.83;;
12852;SDS011;6495;51.808;7.478;2022-11-15T17:44:49;2.45;;;1.70;;
12852;SDS011;6495;51.808;7.478;2022-11-15T17:47:36;4.80;;;1.70;;
12852;SDS011;6495;51.808;7.478;2022-11-15T17:50:25;2.63;;;1.80;;
12852;SDS011;6495;51.808;7.478;2022-11-15T17:53:12;3.75;;;1.70;;
12852;SDS011;6495;51.808;7.478;2022-11-15T17:56:00;2.38;;;1.70;;
12852;SDS011;6495;51.808;7.478;2022-11-15T17:58:49;2.35;;;1.70;;